Bowie - southern half: Past 24 Hour Conditions

 

Cathedral Point

01:00 AM PST 29 November 2014
This table is a summary of hourly weather conditions for the past 24 hours.
Date / Time
(PST)
Wind(knots) Conditions Visibility(km) Pressure(kPa) Air tempC) Relative humidity(%) Dew pointC) Wind Chill
29 November 2014
1:00 NE 38 gust 45 N/A N/A 101.3 -6 60 -12 -18
0:00 NE 38 gust 48 N/A N/A 101.3 -6 60 -13 -18
28 November 2014
23:00 NE 47 gust 58 N/A N/A 101.2 -6 67 -12 -19
22:00 NE 45 gust 56 N/A N/A 101.2 -7 67 -12 -20
21:00 NNE 48 gust 55 N/A N/A 101.1 -6 68 -11 -19
20:00 NE 48 gust 58 N/A N/A 101.0 -7 59 -13 -20
19:00 NE 50 gust 62 N/A N/A 101.0 -7 64 -12 -20
18:00 NE 52 gust 63 N/A N/A 100.8 -6 67 -11 -19
17:00 NE 52 gust 59 N/A N/A 100.8 -6 67 -11 -19
16:00 NE 48 gust 57 N/A N/A 100.7 -6 58 -13 -19
15:00 NE 47 gust 55 N/A N/A 100.7 -5 58 -12 -18
14:00 NE 43 gust 55 N/A N/A 100.7 -5 61 -12 -17
13:00 NE 40 gust 53 N/A N/A 100.8 -6 51 -15 -18
12:00 NE 42 gust 53 N/A N/A 100.7 -5 61 -12 -17
11:00 NE 38 gust 49 N/A N/A 100.8 -5 65 -10 -16
10:00 NE 41 gust 49 N/A N/A 100.7 -5 61 -11 -16
9:00 NE 37 gust 48 N/A N/A 100.7 -4 67 -9 -15
8:00 NE 38 gust 46 N/A N/A 100.7 -4 63 -10 -14
7:00 NE 36 gust 45 N/A N/A 100.7 -3 64 -9 -14
6:00 NE 35 gust 44 N/A N/A 100.7 -3 69 -8 -13
5:00 NE 40 gust 45 N/A N/A 100.7 -3 63 -9 -14
4:00 NE 36 gust 44 N/A N/A 100.7 -2 67 -8 -12
3:00 NE 36 gust 44 N/A N/A 100.7 -2 70 -7 -12
2:00 NE 39 N/A N/A 100.6 -2 65 -7 -12
1:00 NE 34 gust 42 N/A N/A 100.6 -1 66 -7 -11
 
Map of Pacific - South Coast marine weather areas Tsawwassen Ferry Terminal South Nomad - 46036 Sentry Shoal - 46131 South Brooks - 46132 Halibut Bank - 46146 South Moresby - 46147 South Hecate Strait - 46185 West Sea Otter - 46204 La Perouse Bank - 46206 East Dellwood - 46207 Discovery Island Esquimalt Harbour Kelp Reefs Malahat Race Rocks Lightstation Saturna Island Sheringham Point University of Victoria Victoria Gonzales Victoria Int'l Airport Ballenas Islands Campbell River Airport Comox Airport Entrance Island Fanny Island Nanaimo Airport Port Hardy Airport Sisters Islets Estevan Point Sartine Island Solander Island Tofino Airport Grief Point Powell River Airport Sechelt Cape St.James Bella Bella Airport Bella Coola Airport Cathedral Point Herbert Island Point Atkinson Sand Heads Lightstation Vancouver Harbour Vancouver Int'l Airport West Vancouver Port Alberni Howe Sound - Pam Rocks Squamish Airport